sensor_id;sensor_type;location;lat;lon;timestamp;P1;durP1;ratioP1;P2;durP2;ratioP2
39094;SDS011;24840;47.508;19.376;2022-08-05T00:01:18;7.22;;;3.03;;
39094;SDS011;24840;47.508;19.376;2022-08-05T00:03:46;6.07;;;3.10;;
39094;SDS011;24840;47.508;19.376;2022-08-05T00:06:13;3.30;;;3.00;;
39094;SDS011;24840;47.508;19.376;2022-08-05T00:08:40;4.47;;;3.13;;
39094;SDS011;24840;47.508;19.376;2022-08-05T00:11:07;5.72;;;2.85;;
39094;SDS011;24840;47.508;19.376;2022-08-05T00:13:35;6.03;;;2.95;;
39094;SDS011;24840;47.508;19.376;2022-08-05T00:16:03;4.70;;;2.75;;
39094;SDS011;24840;47.508;19.376;2022-08-05T00:18:29;3.88;;;3.45;;
39094;SDS011;24840;47.508;19.376;2022-08-05T00:20:55;3.80;;;3.40;;
39094;SDS011;24840;47.508;19.376;2022-08-05T00:23:22;2.95;;;2.75;;
39094;SDS011;24840;47.508;19.376;2022-08-05T00:25:49;3.85;;;2.45;;
39094;SDS011;24840;47.508;19.376;2022-08-05T00:28:15;4.50;;;4.07;;
39094;SDS011;24840;47.508;19.376;2022-08-05T00:30:41;3.72;;;3.33;;
39094;SDS011;24840;47.508;19.376;2022-08-05T00:33:07;4.13;;;3.30;;
39094;SDS011;24840;47.508;19.376;2022-08-05T00:35:33;3.47;;;3.17;;
39094;SDS011;24840;47.508;19.376;2022-08-05T00:38:00;5.50;;;2.90;;
39094;SDS011;24840;47.508;19.376;2022-08-05T00:40:26;5.32;;;3.03;;
39094;SDS011;24840;47.508;19.376;2022-08-05T00:42:52;3.42;;;3.13;;
39094;SDS011;24840;47.508;19.376;2022-08-05T00:45:19;3.90;;;2.20;;
39094;SDS011;24840;47.508;19.376;2022-08-05T00:47:45;4.20;;;2.65;;
39094;SDS011;24840;47.508;19.376;2022-08-05T00:50:11;2.78;;;2.50;;
39094;SDS011;24840;47.508;19.376;2022-08-05T00:52:37;3.22;;;2.92;;
39094;SDS011;24840;47.508;19.376;2022-08-05T00:55:03;5.13;;;2.83;;
39094;SDS011;24840;47.508;19.376;2022-08-05T00:57:29;3.33;;;3.03;;
39094;SDS011;24840;47.508;19.376;2022-08-05T00:59:55;2.95;;;2.67;;
39094;SDS011;24840;47.508;19.376;2022-08-05T01:02:21;5.90;;;2.97;;
39094;SDS011;24840;47.508;19.376;2022-08-05T01:04:47;3.53;;;2.90;;
39094;SDS011;24840;47.508;19.376;2022-08-05T01:07:13;3.17;;;2.85;;
39094;SDS011;24840;47.508;19.376;2022-08-05T01:09:39;2.78;;;2.58;;
39094;SDS011;24840;47.508;19.376;2022-08-05T01:12:07;3.97;;;3.15;;
39094;SDS011;24840;47.508;19.376;2022-08-05T01:14:39;3.42;;;2.60;;
39094;SDS011;24840;47.508;19.376;2022-08-05T01:20:18;2.72;;;2.53;;
39094;SDS011;24840;47.508;19.376;2022-08-05T01:23:12;3.15;;;2.85;;
39094;SDS011;24840;47.508;19.376;2022-08-05T01:29:12;6.82;;;2.83;;
39094;SDS011;24840;47.508;19.376;2022-08-05T01:31:48;3.17;;;2.90;;
39094;SDS011;24840;47.508;19.376;2022-08-05T01:34:37;4.15;;;2.88;;
39094;SDS011;24840;47.508;19.376;2022-08-05T01:37:17;5.05;;;2.30;;
39094;SDS011;24840;47.508;19.376;2022-08-05T01:39:48;5.40;;;2.75;;
39094;SDS011;24840;47.508;19.376;2022-08-05T01:42:19;3.05;;;2.80;;
39094;SDS011;24840;47.508;19.376;2022-08-05T01:44:48;3.47;;;2.75;;
39094;SDS011;24840;47.508;19.376;2022-08-05T01:47:16;3.40;;;2.50;;
39094;SDS011;24840;47.508;19.376;2022-08-05T01:49:45;4.32;;;3.00;;
39094;SDS011;24840;47.508;19.376;2022-08-05T01:52:14;3.35;;;2.30;;
39094;SDS011;24840;47.508;19.376;2022-08-05T01:54:50;2.92;;;2.63;;
39094;SDS011;24840;47.508;19.376;2022-08-05T01:57:23;3.63;;;2.78;;
39094;SDS011;24840;47.508;19.376;2022-08-05T01:59:54;2.42;;;2.13;;
39094;SDS011;24840;47.508;19.376;2022-08-05T02:02:24;3.03;;;2.40;;
39094;SDS011;24840;47.508;19.376;2022-08-05T02:04:53;4.72;;;2.72;;
39094;SDS011;24840;47.508;19.376;2022-08-05T02:07:22;2.80;;;2.55;;
39094;SDS011;24840;47.508;19.376;2022-08-05T02:09:49;4.28;;;2.67;;
39094;SDS011;24840;47.508;19.376;2022-08-05T02:15:01;7.75;;;3.17;;
39094;SDS011;24840;47.508;19.376;2022-08-05T02:17:44;3.38;;;2.92;;
39094;SDS011;24840;47.508;19.376;2022-08-05T02:20:18;2.92;;;2.55;;
39094;SDS011;24840;47.508;19.376;2022-08-05T02:22:47;3.40;;;2.25;;
39094;SDS011;24840;47.508;19.376;2022-08-05T02:25:26;5.50;;;2.67;;
39094;SDS011;24840;47.508;19.376;2022-08-05T02:27:55;3.05;;;2.30;;
39094;SDS011;24840;47.508;19.376;2022-08-05T02:30:22;3.40;;;2.33;;
39094;SDS011;24840;47.508;19.376;2022-08-05T02:32:53;3.00;;;2.35;;
39094;SDS011;24840;47.508;19.376;2022-08-05T02:35:23;2.42;;;2.22;;
39094;SDS011;24840;47.508;19.376;2022-08-05T02:37:50;3.47;;;2.50;;
39094;SDS011;24840;47.508;19.376;2022-08-05T02:40:19;2.30;;;2.08;;
39094;SDS011;24840;47.508;19.376;2022-08-05T02:42:47;2.63;;;2.42;;
39094;SDS011;24840;47.508;19.376;2022-08-05T02:45:14;3.40;;;3.10;;
39094;SDS011;24840;47.508;19.376;2022-08-05T02:47:41;3.10;;;2.60;;
39094;SDS011;24840;47.508;19.376;2022-08-05T02:50:09;2.25;;;2.08;;
39094;SDS011;24840;47.508;19.376;2022-08-05T02:52:40;3.17;;;2.33;;
39094;SDS011;24840;47.508;19.376;2022-08-05T02:55:08;2.70;;;2.50;;
39094;SDS011;24840;47.508;19.376;2022-08-05T02:57:35;2.97;;;2.30;;
39094;SDS011;24840;47.508;19.376;2022-08-05T03:00:03;3.05;;;2.75;;
39094;SDS011;24840;47.508;19.376;2022-08-05T03:02:32;2.33;;;2.00;;
39094;SDS011;24840;47.508;19.376;2022-08-05T03:05:01;2.85;;;2.42;;
39094;SDS011;24840;47.508;19.376;2022-08-05T03:07:28;3.03;;;2.45;;
39094;SDS011;24840;47.508;19.376;2022-08-05T03:09:55;2.67;;;2.40;;
39094;SDS011;24840;47.508;19.376;2022-08-05T03:12:31;2.63;;;2.40;;
39094;SDS011;24840;47.508;19.376;2022-08-05T03:14:59;3.85;;;2.53;;
39094;SDS011;24840;47.508;19.376;2022-08-05T03:17:25;3.33;;;2.47;;
39094;SDS011;24840;47.508;19.376;2022-08-05T03:19:51;2.85;;;2.55;;
39094;SDS011;24840;47.508;19.376;2022-08-05T03:22:17;3.00;;;2.40;;
39094;SDS011;24840;47.508;19.376;2022-08-05T03:24:44;2.80;;;2.47;;
39094;SDS011;24840;47.508;19.376;2022-08-05T03:27:11;3.00;;;2.70;;
39094;SDS011;24840;47.508;19.376;2022-08-05T03:29:37;5.93;;;2.33;;
39094;SDS011;24840;47.508;19.376;2022-08-05T03:32:05;2.33;;;2.13;;
39094;SDS011;24840;47.508;19.376;2022-08-05T03:34:32;4.95;;;2.22;;
39094;SDS011;24840;47.508;19.376;2022-08-05T03:36:59;3.15;;;2.85;;
39094;SDS011;24840;47.508;19.376;2022-08-05T03:39:27;5.70;;;2.75;;
39094;SDS011;24840;47.508;19.376;2022-08-05T03:41:53;3.00;;;2.50;;
39094;SDS011;24840;47.508;19.376;2022-08-05T03:44:22;3.88;;;2.40;;
39094;SDS011;24840;47.508;19.376;2022-08-05T03:46:49;3.13;;;2.65;;
39094;SDS011;24840;47.508;19.376;2022-08-05T03:49:15;2.72;;;2.47;;
39094;SDS011;24840;47.508;19.376;2022-08-05T03:51:49;4.97;;;3.28;;
39094;SDS011;24840;47.508;19.376;2022-08-05T03:54:18;4.63;;;2.60;;
39094;SDS011;24840;47.508;19.376;2022-08-05T03:57:02;3.85;;;2.67;;
39094;SDS011;24840;47.508;19.376;2022-08-05T03:59:33;5.70;;;2.40;;
39094;SDS011;24840;47.508;19.376;2022-08-05T04:02:04;7.95;;;3.25;;
39094;SDS011;24840;47.508;19.376;2022-08-05T04:04:31;4.90;;;2.80;;
39094;SDS011;24840;47.508;19.376;2022-08-05T04:06:59;4.80;;;3.47;;
39094;SDS011;24840;47.508;19.376;2022-08-05T04:09:26;3.70;;;3.00;;
39094;SDS011;24840;47.508;19.376;2022-08-05T04:11:54;3.38;;;2.63;;
39094;SDS011;24840;47.508;19.376;2022-08-05T04:14:21;6.72;;;2.65;;
39094;SDS011;24840;47.508;19.376;2022-08-05T04:16:47;4.55;;;2.90;;
39094;SDS011;24840;47.508;19.376;2022-08-05T04:19:13;4.55;;;2.67;;
39094;SDS011;24840;47.508;19.376;2022-08-05T04:21:39;4.70;;;3.10;;
39094;SDS011;24840;47.508;19.376;2022-08-05T04:24:06;2.60;;;2.40;;
39094;SDS011;24840;47.508;19.376;2022-08-05T04:26:32;6.32;;;3.13;;
39094;SDS011;24840;47.508;19.376;2022-08-05T04:28:58;4.43;;;2.90;;
39094;SDS011;24840;47.508;19.376;2022-08-05T04:31:25;4.80;;;3.20;;
39094;SDS011;24840;47.508;19.376;2022-08-05T04:33:51;8.43;;;3.38;;
39094;SDS011;24840;47.508;19.376;2022-08-05T04:36:17;12.70;;;3.50;;
39094;SDS011;24840;47.508;19.376;2022-08-05T04:38:43;3.00;;;2.70;;
39094;SDS011;24840;47.508;19.376;2022-08-05T04:41:10;17.05;;;3.30;;
39094;SDS011;24840;47.508;19.376;2022-08-05T04:43:39;5.05;;;3.08;;
39094;SDS011;24840;47.508;19.376;2022-08-05T04:46:05;5.07;;;2.92;;
39094;SDS011;24840;47.508;19.376;2022-08-05T04:48:31;9.77;;;3.20;;
39094;SDS011;24840;47.508;19.376;2022-08-05T04:50:57;4.38;;;2.90;;
39094;SDS011;24840;47.508;19.376;2022-08-05T04:53:23;3.50;;;2.55;;
39094;SDS011;24840;47.508;19.376;2022-08-05T04:55:49;3.58;;;2.80;;
39094;SDS011;24840;47.508;19.376;2022-08-05T04:58:16;3.28;;;2.97;;
39094;SDS011;24840;47.508;19.376;2022-08-05T05:00:42;3.13;;;2.75;;
39094;SDS011;24840;47.508;19.376;2022-08-05T05:03:09;3.45;;;2.85;;
39094;SDS011;24840;47.508;19.376;2022-08-05T05:05:35;3.72;;;3.20;;
39094;SDS011;24840;47.508;19.376;2022-08-05T05:08:08;6.47;;;3.90;;
39094;SDS011;24840;47.508;19.376;2022-08-05T05:10:41;10.25;;;3.08;;
39094;SDS011;24840;47.508;19.376;2022-08-05T05:13:10;2.97;;;2.67;;
39094;SDS011;24840;47.508;19.376;2022-08-05T05:15:37;5.40;;;3.20;;
39094;SDS011;24840;47.508;19.376;2022-08-05T05:18:03;3.22;;;2.65;;
39094;SDS011;24840;47.508;19.376;2022-08-05T05:20:29;9.63;;;3.78;;
39094;SDS011;24840;47.508;19.376;2022-08-05T05:22:56;10.40;;;3.25;;
39094;SDS011;24840;47.508;19.376;2022-08-05T05:25:23;16.02;;;3.45;;
39094;SDS011;24840;47.508;19.376;2022-08-05T05:27:50;4.85;;;3.40;;
39094;SDS011;24840;47.508;19.376;2022-08-05T05:30:19;5.47;;;3.20;;
39094;SDS011;24840;47.508;19.376;2022-08-05T05:32:46;7.57;;;2.75;;
39094;SDS011;24840;47.508;19.376;2022-08-05T05:35:13;6.43;;;2.83;;
39094;SDS011;24840;47.508;19.376;2022-08-05T05:37:54;3.33;;;3.03;;
39094;SDS011;24840;47.508;19.376;2022-08-05T05:40:22;9.02;;;2.58;;
39094;SDS011;24840;47.508;19.376;2022-08-05T05:42:49;3.50;;;2.78;;
39094;SDS011;24840;47.508;19.376;2022-08-05T05:45:15;4.00;;;2.67;;
39094;SDS011;24840;47.508;19.376;2022-08-05T05:47:42;7.30;;;3.15;;
39094;SDS011;24840;47.508;19.376;2022-08-05T05:50:10;9.02;;;2.97;;
39094;SDS011;24840;47.508;19.376;2022-08-05T05:52:38;9.55;;;2.83;;
39094;SDS011;24840;47.508;19.376;2022-08-05T05:55:05;8.68;;;3.08;;
39094;SDS011;24840;47.508;19.376;2022-08-05T05:57:33;9.02;;;2.83;;
39094;SDS011;24840;47.508;19.376;2022-08-05T06:00:00;4.78;;;3.63;;
39094;SDS011;24840;47.508;19.376;2022-08-05T06:04:57;10.10;;;3.65;;
39094;SDS011;24840;47.508;19.376;2022-08-05T06:07:23;12.50;;;3.83;;
39094;SDS011;24840;47.508;19.376;2022-08-05T06:09:49;4.78;;;2.78;;
39094;SDS011;24840;47.508;19.376;2022-08-05T06:12:15;7.60;;;2.85;;
39094;SDS011;24840;47.508;19.376;2022-08-05T06:14:41;8.82;;;2.53;;
39094;SDS011;24840;47.508;19.376;2022-08-05T06:17:11;3.30;;;1.60;;
39094;SDS011;24840;47.508;19.376;2022-08-05T06:19:37;1.90;;;1.70;;
39094;SDS011;24840;47.508;19.376;2022-08-05T06:22:03;2.55;;;1.50;;
39094;SDS011;24840;47.508;19.376;2022-08-05T06:24:31;2.78;;;1.60;;
39094;SDS011;24840;47.508;19.376;2022-08-05T06:26:57;3.20;;;1.35;;
39094;SDS011;24840;47.508;19.376;2022-08-05T06:29:23;3.50;;;1.70;;
39094;SDS011;24840;47.508;19.376;2022-08-05T06:31:50;4.85;;;2.17;;
39094;SDS011;24840;47.508;19.376;2022-08-05T06:34:16;5.10;;;2.20;;
39094;SDS011;24840;47.508;19.376;2022-08-05T06:36:43;4.38;;;1.35;;
39094;SDS011;24840;47.508;19.376;2022-08-05T06:39:09;6.32;;;1.95;;
39094;SDS011;24840;47.508;19.376;2022-08-05T06:41:35;1.73;;;1.30;;
39094;SDS011;24840;47.508;19.376;2022-08-05T06:44:01;5.38;;;1.70;;
39094;SDS011;24840;47.508;19.376;2022-08-05T06:46:27;4.82;;;1.77;;
39094;SDS011;24840;47.508;19.376;2022-08-05T06:48:53;4.03;;;1.40;;
39094;SDS011;24840;47.508;19.376;2022-08-05T06:51:19;1.63;;;1.45;;
39094;SDS011;24840;47.508;19.376;2022-08-05T06:53:45;1.42;;;1.33;;
39094;SDS011;24840;47.508;19.376;2022-08-05T06:56:11;3.50;;;1.92;;
39094;SDS011;24840;47.508;19.376;2022-08-05T06:58:37;2.70;;;1.52;;
39094;SDS011;24840;47.508;19.376;2022-08-05T07:01:04;3.22;;;1.58;;
39094;SDS011;24840;47.508;19.376;2022-08-05T07:03:30;3.78;;;1.80;;
39094;SDS011;24840;47.508;19.376;2022-08-05T07:05:57;2.05;;;1.40;;
39094;SDS011;24840;47.508;19.376;2022-08-05T07:08:23;1.45;;;1.35;;
39094;SDS011;24840;47.508;19.376;2022-08-05T07:10:49;3.60;;;2.10;;
39094;SDS011;24840;47.508;19.376;2022-08-05T07:13:16;1.92;;;1.45;;
39094;SDS011;24840;47.508;19.376;2022-08-05T07:16:00;5.50;;;1.77;;
39094;SDS011;24840;47.508;19.376;2022-08-05T07:18:45;2.65;;;1.60;;
39094;SDS011;24840;47.508;19.376;2022-08-05T07:21:11;4.43;;;1.90;;
39094;SDS011;24840;47.508;19.376;2022-08-05T07:23:38;2.22;;;1.92;;
39094;SDS011;24840;47.508;19.376;2022-08-05T07:26:17;3.17;;;1.77;;
39094;SDS011;24840;47.508;19.376;2022-08-05T07:28:51;3.78;;;1.88;;
39094;SDS011;24840;47.508;19.376;2022-08-05T07:31:17;2.65;;;1.90;;
39094;SDS011;24840;47.508;19.376;2022-08-05T07:33:43;2.40;;;1.73;;
39094;SDS011;24840;47.508;19.376;2022-08-05T07:36:09;5.88;;;1.90;;
39094;SDS011;24840;47.508;19.376;2022-08-05T07:38:35;6.95;;;2.00;;
39094;SDS011;24840;47.508;19.376;2022-08-05T07:41:03;2.33;;;1.58;;
39094;SDS011;24840;47.508;19.376;2022-08-05T07:43:30;4.63;;;1.95;;
39094;SDS011;24840;47.508;19.376;2022-08-05T07:45:56;2.90;;;1.60;;
39094;SDS011;24840;47.508;19.376;2022-08-05T07:48:22;4.57;;;1.65;;
39094;SDS011;24840;47.508;19.376;2022-08-05T07:50:48;2.42;;;1.60;;
39094;SDS011;24840;47.508;19.376;2022-08-05T07:53:14;4.63;;;1.90;;
39094;SDS011;24840;47.508;19.376;2022-08-05T07:55:40;1.88;;;1.77;;
39094;SDS011;24840;47.508;19.376;2022-08-05T07:58:06;3.63;;;2.17;;
39094;SDS011;24840;47.508;19.376;2022-08-05T08:00:32;4.55;;;2.00;;
39094;SDS011;24840;47.508;19.376;2022-08-05T08:02:58;2.38;;;2.17;;
39094;SDS011;24840;47.508;19.376;2022-08-05T08:05:24;1.92;;;1.75;;
39094;SDS011;24840;47.508;19.376;2022-08-05T08:07:51;3.80;;;2.00;;
39094;SDS011;24840;47.508;19.376;2022-08-05T08:10:20;2.22;;;1.92;;
39094;SDS011;24840;47.508;19.376;2022-08-05T08:12:47;2.60;;;2.03;;
39094;SDS011;24840;47.508;19.376;2022-08-05T08:15:13;4.07;;;2.05;;
39094;SDS011;24840;47.508;19.376;2022-08-05T08:17:39;3.13;;;2.03;;
39094;SDS011;24840;47.508;19.376;2022-08-05T08:20:05;2.08;;;1.88;;
39094;SDS011;24840;47.508;19.376;2022-08-05T08:22:31;2.75;;;2.55;;
39094;SDS011;24840;47.508;19.376;2022-08-05T08:24:58;3.90;;;3.50;;
39094;SDS011;24840;47.508;19.376;2022-08-05T08:27:24;2.85;;;2.20;;
39094;SDS011;24840;47.508;19.376;2022-08-05T08:29:50;4.43;;;2.20;;
39094;SDS011;24840;47.508;19.376;2022-08-05T08:32:17;2.30;;;2.08;;
39094;SDS011;24840;47.508;19.376;2022-08-05T08:34:43;2.58;;;2.10;;
39094;SDS011;24840;47.508;19.376;2022-08-05T08:37:09;2.17;;;1.98;;
39094;SDS011;24840;47.508;19.376;2022-08-05T08:39:35;4.55;;;2.50;;
39094;SDS011;24840;47.508;19.376;2022-08-05T08:42:02;2.97;;;2.42;;
39094;SDS011;24840;47.508;19.376;2022-08-05T08:44:30;2.40;;;2.30;;
39094;SDS011;24840;47.508;19.376;2022-08-05T08:46:57;2.60;;;2.40;;
39094;SDS011;24840;47.508;19.376;2022-08-05T08:49:24;3.28;;;2.33;;
39094;SDS011;24840;47.508;19.376;2022-08-05T08:51:57;5.13;;;2.70;;
39094;SDS011;24840;47.508;19.376;2022-08-05T08:54:29;2.72;;;2.45;;
39094;SDS011;24840;47.508;19.376;2022-08-05T08:56:55;6.43;;;2.42;;
39094;SDS011;24840;47.508;19.376;2022-08-05T08:59:23;6.05;;;2.60;;
39094;SDS011;24840;47.508;19.376;2022-08-05T09:01:49;6.30;;;2.67;;
39094;SDS011;24840;47.508;19.376;2022-08-05T09:04:16;3.22;;;2.40;;
39094;SDS011;24840;47.508;19.376;2022-08-05T09:06:43;7.40;;;2.90;;
39094;SDS011;24840;47.508;19.376;2022-08-05T09:09:09;3.80;;;2.72;;
39094;SDS011;24840;47.508;19.376;2022-08-05T09:11:35;3.13;;;2.28;;
39094;SDS011;24840;47.508;19.376;2022-08-05T09:14:02;5.47;;;2.80;;
39094;SDS011;24840;47.508;19.376;2022-08-05T09:16:28;2.83;;;2.63;;
39094;SDS011;24840;47.508;19.376;2022-08-05T09:18:54;5.88;;;2.85;;
39094;SDS011;24840;47.508;19.376;2022-08-05T09:21:20;3.13;;;2.92;;
39094;SDS011;24840;47.508;19.376;2022-08-05T09:24:05;3.13;;;2.50;;
39094;SDS011;24840;47.508;19.376;2022-08-05T09:26:33;3.88;;;2.70;;
39094;SDS011;24840;47.508;19.376;2022-08-05T09:29:00;3.17;;;2.88;;
39094;SDS011;24840;47.508;19.376;2022-08-05T09:31:30;2.85;;;2.65;;
39094;SDS011;24840;47.508;19.376;2022-08-05T09:34:04;3.03;;;2.83;;
39094;SDS011;24840;47.508;19.376;2022-08-05T09:36:51;4.38;;;2.47;;
39094;SDS011;24840;47.508;19.376;2022-08-05T09:39:18;7.72;;;2.70;;
39094;SDS011;24840;47.508;19.376;2022-08-05T09:42:02;5.22;;;2.95;;
39094;SDS011;24840;47.508;19.376;2022-08-05T09:44:32;2.72;;;2.55;;
39094;SDS011;24840;47.508;19.376;2022-08-05T09:47:10;3.80;;;2.97;;
39094;SDS011;24840;47.508;19.376;2022-08-05T09:49:42;3.30;;;3.08;;
39094;SDS011;24840;47.508;19.376;2022-08-05T09:52:24;4.72;;;3.00;;
39094;SDS011;24840;47.508;19.376;2022-08-05T09:55:07;3.20;;;2.90;;
39094;SDS011;24840;47.508;19.376;2022-08-05T09:57:36;3.08;;;2.83;;
39094;SDS011;24840;47.508;19.376;2022-08-05T10:02:31;4.97;;;3.30;;
39094;SDS011;24840;47.508;19.376;2022-08-05T10:05:05;2.92;;;2.72;;
39094;SDS011;24840;47.508;19.376;2022-08-05T10:13:03;3.25;;;2.95;;
39094;SDS011;24840;47.508;19.376;2022-08-05T10:15:31;3.20;;;3.00;;
39094;SDS011;24840;47.508;19.376;2022-08-05T10:18:17;3.42;;;3.13;;
39094;SDS011;24840;47.508;19.376;2022-08-05T10:20:50;4.10;;;3.15;;
39094;SDS011;24840;47.508;19.376;2022-08-05T10:23:18;3.22;;;2.92;;
39094;SDS011;24840;47.508;19.376;2022-08-05T10:25:46;3.08;;;2.88;;
39094;SDS011;24840;47.508;19.376;2022-08-05T10:28:13;4.45;;;3.60;;
39094;SDS011;24840;47.508;19.376;2022-08-05T10:30:40;5.43;;;3.20;;
39094;SDS011;24840;47.508;19.376;2022-08-05T10:33:06;3.95;;;3.60;;
39094;SDS011;24840;47.508;19.376;2022-08-05T10:35:33;3.97;;;2.97;;
39094;SDS011;24840;47.508;19.376;2022-08-05T10:37:59;4.25;;;3.88;;
39094;SDS011;24840;47.508;19.376;2022-08-05T10:42:53;3.70;;;3.40;;
39094;SDS011;24840;47.508;19.376;2022-08-05T10:45:24;4.57;;;3.55;;
39094;SDS011;24840;47.508;19.376;2022-08-05T10:47:51;3.50;;;3.13;;
39094;SDS011;24840;47.508;19.376;2022-08-05T10:50:18;3.50;;;3.22;;
39094;SDS011;24840;47.508;19.376;2022-08-05T10:52:48;4.18;;;2.88;;
39094;SDS011;24840;47.508;19.376;2022-08-05T10:55:22;8.07;;;3.92;;
39094;SDS011;24840;47.508;19.376;2022-08-05T10:58:05;6.13;;;3.83;;
39094;SDS011;24840;47.508;19.376;2022-08-05T11:00:35;3.35;;;3.13;;
39094;SDS011;24840;47.508;19.376;2022-08-05T11:05:31;3.38;;;3.17;;
39094;SDS011;24840;47.508;19.376;2022-08-05T11:08:02;3.28;;;3.08;;
39094;SDS011;24840;47.508;19.376;2022-08-05T11:10:29;3.35;;;3.00;;
39094;SDS011;24840;47.508;19.376;2022-08-05T11:12:57;4.18;;;3.30;;
39094;SDS011;24840;47.508;19.376;2022-08-05T11:15:30;4.05;;;3.75;;
39094;SDS011;24840;47.508;19.376;2022-08-05T11:20:51;4.22;;;3.60;;
39094;SDS011;24840;47.508;19.376;2022-08-05T11:23:25;5.07;;;3.97;;
39094;SDS011;24840;47.508;19.376;2022-08-05T11:26:08;4.28;;;3.38;;
39094;SDS011;24840;47.508;19.376;2022-08-05T11:28:45;4.55;;;3.63;;
39094;SDS011;24840;47.508;19.376;2022-08-05T11:36:17;10.10;;;3.85;;
39094;SDS011;24840;47.508;19.376;2022-08-05T11:44:01;4.47;;;4.18;;
39094;SDS011;24840;47.508;19.376;2022-08-05T11:49:17;4.25;;;3.83;;
39094;SDS011;24840;47.508;19.376;2022-08-05T11:51:44;4.20;;;3.80;;
39094;SDS011;24840;47.508;19.376;2022-08-05T11:54:12;5.40;;;3.95;;
39094;SDS011;24840;47.508;19.376;2022-08-05T11:56:46;4.15;;;3.70;;
39094;SDS011;24840;47.508;19.376;2022-08-05T11:59:17;4.35;;;3.90;;
39094;SDS011;24840;47.508;19.376;2022-08-05T12:01:55;3.72;;;3.35;;
39094;SDS011;24840;47.508;19.376;2022-08-05T12:07:24;4.00;;;3.70;;
39094;SDS011;24840;47.508;19.376;2022-08-05T12:09:53;4.45;;;4.00;;
39094;SDS011;24840;47.508;19.376;2022-08-05T12:12:25;4.25;;;4.05;;
39094;SDS011;24840;47.508;19.376;2022-08-05T12:14:54;4.55;;;4.25;;
39094;SDS011;24840;47.508;19.376;2022-08-05T12:17:21;4.93;;;4.50;;
39094;SDS011;24840;47.508;19.376;2022-08-05T12:19:48;5.40;;;4.32;;
39094;SDS011;24840;47.508;19.376;2022-08-05T12:22:18;4.55;;;4.25;;
39094;SDS011;24840;47.508;19.376;2022-08-05T12:24:47;4.82;;;4.53;;
39094;SDS011;24840;47.508;19.376;2022-08-05T12:27:25;9.50;;;3.85;;
39094;SDS011;24840;47.508;19.376;2022-08-05T12:30:03;3.90;;;3.70;;
39094;SDS011;24840;47.508;19.376;2022-08-05T12:32:42;4.40;;;4.10;;
39094;SDS011;24840;47.508;19.376;2022-08-05T12:35:10;4.40;;;4.10;;
39094;SDS011;24840;47.508;19.376;2022-08-05T12:37:39;4.53;;;4.28;;
39094;SDS011;24840;47.508;19.376;2022-08-05T12:40:09;4.15;;;3.85;;
39094;SDS011;24840;47.508;19.376;2022-08-05T12:45:04;4.53;;;4.22;;
39094;SDS011;24840;47.508;19.376;2022-08-05T12:47:32;5.15;;;4.78;;
39094;SDS011;24840;47.508;19.376;2022-08-05T12:49:59;4.55;;;4.15;;
39094;SDS011;24840;47.508;19.376;2022-08-05T12:52:36;4.35;;;3.95;;
39094;SDS011;24840;47.508;19.376;2022-08-05T12:55:14;4.60;;;4.07;;
39094;SDS011;24840;47.508;19.376;2022-08-05T12:57:55;8.77;;;4.88;;
39094;SDS011;24840;47.508;19.376;2022-08-05T13:00:22;4.78;;;4.05;;
39094;SDS011;24840;47.508;19.376;2022-08-05T13:02:53;4.50;;;4.20;;
39094;SDS011;24840;47.508;19.376;2022-08-05T13:05:20;5.45;;;5.05;;
39094;SDS011;24840;47.508;19.376;2022-08-05T13:07:47;11.07;;;4.03;;
39094;SDS011;24840;47.508;19.376;2022-08-05T13:10:14;4.28;;;3.97;;
39094;SDS011;24840;47.508;19.376;2022-08-05T13:12:42;3.85;;;3.47;;
39094;SDS011;24840;47.508;19.376;2022-08-05T13:15:10;4.63;;;4.22;;
39094;SDS011;24840;47.508;19.376;2022-08-05T13:17:37;4.20;;;4.00;;
39094;SDS011;24840;47.508;19.376;2022-08-05T13:22:36;4.07;;;3.72;;
39094;SDS011;24840;47.508;19.376;2022-08-05T13:25:11;7.75;;;3.45;;
39094;SDS011;24840;47.508;19.376;2022-08-05T13:27:46;5.97;;;3.63;;
39094;SDS011;24840;47.508;19.376;2022-08-05T13:30:14;4.05;;;3.50;;
39094;SDS011;24840;47.508;19.376;2022-08-05T13:32:41;4.20;;;3.78;;
39094;SDS011;24840;47.508;19.376;2022-08-05T13:35:11;3.40;;;3.20;;
39094;SDS011;24840;47.508;19.376;2022-08-05T13:37:38;4.38;;;3.67;;
39094;SDS011;24840;47.508;19.376;2022-08-05T13:40:04;6.18;;;3.78;;
39094;SDS011;24840;47.508;19.376;2022-08-05T13:42:31;9.13;;;3.70;;
39094;SDS011;24840;47.508;19.376;2022-08-05T13:44:58;6.53;;;4.20;;
39094;SDS011;24840;47.508;19.376;2022-08-05T13:47:27;6.22;;;4.60;;
39094;SDS011;24840;47.508;19.376;2022-08-05T13:49:54;4.53;;;4.13;;
39094;SDS011;24840;47.508;19.376;2022-08-05T13:52:22;5.20;;;3.80;;
39094;SDS011;24840;47.508;19.376;2022-08-05T13:54:55;6.65;;;4.35;;
39094;SDS011;24840;47.508;19.376;2022-08-05T13:57:22;9.60;;;4.68;;
39094;SDS011;24840;47.508;19.376;2022-08-05T13:59:48;5.47;;;4.13;;
39094;SDS011;24840;47.508;19.376;2022-08-05T14:02:14;8.95;;;4.15;;
39094;SDS011;24840;47.508;19.376;2022-08-05T14:04:42;6.57;;;4.50;;
39094;SDS011;24840;47.508;19.376;2022-08-05T14:07:30;3.70;;;3.40;;
39094;SDS011;24840;47.508;19.376;2022-08-05T14:10:18;3.83;;;3.60;;
39094;SDS011;24840;47.508;19.376;2022-08-05T14:12:47;5.75;;;3.90;;
39094;SDS011;24840;47.508;19.376;2022-08-05T14:15:13;4.15;;;3.80;;
39094;SDS011;24840;47.508;19.376;2022-08-05T14:17:40;5.60;;;4.53;;
39094;SDS011;24840;47.508;19.376;2022-08-05T14:20:06;5.00;;;3.95;;
39094;SDS011;24840;47.508;19.376;2022-08-05T14:22:32;4.03;;;3.72;;
39094;SDS011;24840;47.508;19.376;2022-08-05T14:24:59;4.05;;;3.85;;
39094;SDS011;24840;47.508;19.376;2022-08-05T14:27:26;4.43;;;3.75;;
39094;SDS011;24840;47.508;19.376;2022-08-05T14:29:52;4.60;;;4.18;;
39094;SDS011;24840;47.508;19.376;2022-08-05T14:32:18;3.97;;;3.58;;
39094;SDS011;24840;47.508;19.376;2022-08-05T14:34:44;3.83;;;3.53;;
39094;SDS011;24840;47.508;19.376;2022-08-05T14:37:10;4.13;;;3.40;;
39094;SDS011;24840;47.508;19.376;2022-08-05T14:39:36;3.88;;;3.58;;
39094;SDS011;24840;47.508;19.376;2022-08-05T14:42:02;3.60;;;3.40;;
39094;SDS011;24840;47.508;19.376;2022-08-05T14:44:28;4.63;;;4.18;;
39094;SDS011;24840;47.508;19.376;2022-08-05T14:46:54;4.63;;;4.13;;
39094;SDS011;24840;47.508;19.376;2022-08-05T14:49:20;5.00;;;4.25;;
39094;SDS011;24840;47.508;19.376;2022-08-05T14:51:46;4.80;;;3.78;;
39094;SDS011;24840;47.508;19.376;2022-08-05T14:54:12;4.47;;;3.70;;
39094;SDS011;24840;47.508;19.376;2022-08-05T14:56:38;4.45;;;3.60;;
39094;SDS011;24840;47.508;19.376;2022-08-05T14:59:04;4.50;;;4.18;;
39094;SDS011;24840;47.508;19.376;2022-08-05T15:01:30;4.72;;;4.38;;
39094;SDS011;24840;47.508;19.376;2022-08-05T15:03:56;7.65;;;4.00;;
39094;SDS011;24840;47.508;19.376;2022-08-05T15:06:22;3.60;;;3.05;;
39094;SDS011;24840;47.508;19.376;2022-08-05T15:08:49;3.45;;;3.25;;
39094;SDS011;24840;47.508;19.376;2022-08-05T15:11:15;4.07;;;3.63;;
39094;SDS011;24840;47.508;19.376;2022-08-05T15:13:41;4.60;;;3.97;;
39094;SDS011;24840;47.508;19.376;2022-08-05T15:16:07;3.78;;;3.58;;
39094;SDS011;24840;47.508;19.376;2022-08-05T15:18:33;3.78;;;3.35;;
39094;SDS011;24840;47.508;19.376;2022-08-05T15:21:02;4.00;;;3.70;;
39094;SDS011;24840;47.508;19.376;2022-08-05T15:23:28;3.70;;;3.40;;
39094;SDS011;24840;47.508;19.376;2022-08-05T15:25:54;3.88;;;3.60;;
39094;SDS011;24840;47.508;19.376;2022-08-05T15:28:20;13.55;;;4.22;;
39094;SDS011;24840;47.508;19.376;2022-08-05T15:30:46;3.50;;;3.20;;